createdAt,value
2023-01-26T00:01:25.460Z,-0.10
2023-01-26T00:03:52.544Z,-0.20
2023-01-26T00:06:21.303Z,-0.10
2023-01-26T00:08:50.583Z,-0.10
2023-01-26T00:11:19.974Z,-0.10
2023-01-26T00:13:50.392Z,-0.10
2023-01-26T00:16:17.613Z,-0.10
2023-01-26T00:18:44.642Z,0.00
2023-01-26T00:21:14.415Z,0.00
2023-01-26T00:23:41.762Z,-0.10
2023-01-26T00:26:13.343Z,-0.10
2023-01-26T00:28:40.440Z,-0.20
2023-01-26T00:31:12.339Z,-0.10
2023-01-26T00:33:39.796Z,0.00
2023-01-26T00:36:07.349Z,0.00
2023-01-26T00:38:34.900Z,-0.10
2023-01-26T00:41:02.089Z,-0.10
2023-01-26T00:43:29.101Z,-0.10
2023-01-26T00:45:56.255Z,-0.10
2023-01-26T00:48:24.792Z,-0.10
2023-01-26T00:50:53.336Z,0.00
2023-01-26T00:53:20.409Z,0.00
2023-01-26T00:55:47.594Z,0.00
2023-01-26T00:58:14.531Z,-0.10
2023-01-26T01:00:41.624Z,0.00
2023-01-26T01:03:08.817Z,0.00
2023-01-26T01:05:35.942Z,0.00
2023-01-26T01:08:03.036Z,0.00
2023-01-26T01:10:30.972Z,0.00
2023-01-26T01:12:58.018Z,-0.10
2023-01-26T01:15:25.552Z,0.00
2023-01-26T01:17:53.092Z,0.00
2023-01-26T01:20:20.330Z,0.00
2023-01-26T01:22:47.406Z,0.00
2023-01-26T01:25:14.514Z,0.00
2023-01-26T01:27:41.854Z,0.10
2023-01-26T01:30:10.106Z,0.00
2023-01-26T01:32:39.777Z,0.10
2023-01-26T01:35:07.887Z,0.10
2023-01-26T01:37:36.781Z,0.10
2023-01-26T01:40:04.047Z,0.20
2023-01-26T01:42:33.141Z,0.10
2023-01-26T01:45:35.869Z,0.20
2023-01-26T01:48:05.223Z,0.20
2023-01-26T01:50:39.693Z,0.20
2023-01-26T01:53:12.010Z,0.20
2023-01-26T01:55:41.425Z,0.10
2023-01-26T01:58:09.466Z,0.10
2023-01-26T02:00:36.562Z,0.20
2023-01-26T02:03:14.753Z,0.10
2023-01-26T02:05:49.324Z,0.10
2023-01-26T02:08:19.315Z,0.20
2023-01-26T02:10:50.295Z,0.10
2023-01-26T02:13:19.032Z,0.10
2023-01-26T02:15:46.799Z,0.10
2023-01-26T02:18:13.974Z,0.20
2023-01-26T02:20:40.962Z,0.20
2023-01-26T02:23:30.197Z,0.20
2023-01-26T02:26:11.374Z,0.20
2023-01-26T02:28:39.819Z,0.20
2023-01-26T02:31:08.241Z,0.20
2023-01-26T02:33:36.291Z,0.20
2023-01-26T02:36:06.451Z,0.20
2023-01-26T02:38:43.838Z,0.20
2023-01-26T02:41:36.693Z,0.20
2023-01-26T02:44:06.892Z,0.20
2023-01-26T02:46:34.502Z,0.20
2023-01-26T02:49:19.981Z,0.30
2023-01-26T02:51:47.309Z,0.20
2023-01-26T02:54:35.190Z,0.20
2023-01-26T02:57:03.009Z,0.20
2023-01-26T02:59:30.124Z,0.20
2023-01-26T03:01:58.148Z,0.20
2023-01-26T03:04:25.254Z,0.30
2023-01-26T03:06:52.776Z,0.30
2023-01-26T03:09:19.752Z,0.20
2023-01-26T03:11:47.983Z,0.30
2023-01-26T03:14:17.051Z,0.30
2023-01-26T03:16:44.218Z,0.30
2023-01-26T03:19:34.802Z,0.30
2023-01-26T03:22:28.786Z,0.30
2023-01-26T03:25:15.617Z,0.30
2023-01-26T03:27:46.519Z,0.30
2023-01-26T03:30:17.153Z,0.40
2023-01-26T03:32:45.656Z,0.30
2023-01-26T03:35:15.534Z,0.40
2023-01-26T03:37:44.156Z,0.30
2023-01-26T03:40:36.518Z,0.30
2023-01-26T03:43:28.147Z,0.40
2023-01-26T03:46:14.474Z,0.30
2023-01-26T03:49:00.771Z,0.40
2023-01-26T03:51:49.622Z,0.40
2023-01-26T03:54:35.417Z,0.40
2023-01-26T03:57:03.594Z,0.40
2023-01-26T03:59:39.341Z,0.40
2023-01-26T04:02:31.560Z,0.40
2023-01-26T04:05:18.393Z,0.50
2023-01-26T04:08:07.258Z,0.50
2023-01-26T04:10:34.481Z,0.40
2023-01-26T04:13:22.642Z,0.40
2023-01-26T04:16:17.415Z,0.40
2023-01-26T04:19:03.087Z,0.50
2023-01-26T04:21:33.291Z,0.40
2023-01-26T04:24:09.649Z,0.50
2023-01-26T04:26:37.547Z,0.50
2023-01-26T04:29:11.496Z,0.50
2023-01-26T04:31:39.589Z,0.50
2023-01-26T04:34:11.508Z,0.50
2023-01-26T04:36:38.738Z,0.50
2023-01-26T04:39:05.997Z,0.50
2023-01-26T04:41:33.209Z,0.50
2023-01-26T04:44:05.222Z,0.50
2023-01-26T04:46:33.365Z,0.50
2023-01-26T04:49:04.858Z,0.60
2023-01-26T04:51:32.211Z,0.60
2023-01-26T04:53:59.336Z,0.60
2023-01-26T04:56:33.256Z,0.60
2023-01-26T04:59:03.646Z,0.60
2023-01-26T05:01:34.502Z,0.60
2023-01-26T05:04:05.729Z,0.60
2023-01-26T05:06:34.021Z,0.60
2023-01-26T05:09:00.981Z,0.60
2023-01-26T05:11:28.815Z,0.60
2023-01-26T05:14:16.100Z,0.60
2023-01-26T05:17:00.592Z,0.60
2023-01-26T05:19:48.963Z,0.60
2023-01-26T05:22:31.806Z,0.60
2023-01-26T05:25:17.646Z,0.60
2023-01-26T05:27:55.010Z,0.60
2023-01-26T05:30:22.318Z,0.60
2023-01-26T05:32:50.606Z,0.70
2023-01-26T05:35:17.746Z,0.70
2023-01-26T05:37:45.913Z,0.70
2023-01-26T05:40:14.397Z,0.70
2023-01-26T05:42:43.969Z,0.70
2023-01-26T05:45:37.268Z,0.70
2023-01-26T05:48:05.753Z,0.70
2023-01-26T05:50:33.045Z,0.80
2023-01-26T05:53:29.387Z,0.70
2023-01-26T05:55:56.668Z,0.70
2023-01-26T05:58:26.679Z,0.70
2023-01-26T06:00:54.398Z,0.70
2023-01-26T06:03:26.913Z,0.80
2023-01-26T06:05:55.366Z,0.80
2023-01-26T06:08:46.049Z,0.80
2023-01-26T06:11:32.905Z,0.80
2023-01-26T06:14:22.568Z,0.80
2023-01-26T06:16:56.875Z,0.80
2023-01-26T06:19:24.858Z,0.80
2023-01-26T06:22:07.648Z,0.80
2023-01-26T06:24:36.466Z,0.80
2023-01-26T06:27:07.123Z,0.80
2023-01-26T06:29:44.828Z,0.80
2023-01-26T06:32:13.871Z,0.80
2023-01-26T06:34:48.257Z,0.80
2023-01-26T06:37:15.434Z,0.80
2023-01-26T06:39:44.427Z,0.80
2023-01-26T06:42:13.045Z,0.90
2023-01-26T06:44:40.274Z,0.90
2023-01-26T06:47:08.009Z,1.00
2023-01-26T06:49:36.172Z,0.90
2023-01-26T06:52:33.582Z,0.90
2023-01-26T06:55:36.001Z,0.90
2023-01-26T06:58:21.987Z,1.00
2023-01-26T07:01:23.297Z,1.00
2023-01-26T07:03:52.037Z,1.00
2023-01-26T07:06:19.372Z,1.00
2023-01-26T07:08:49.571Z,0.90
2023-01-26T07:11:17.458Z,1.00
2023-01-26T07:13:44.613Z,1.00
2023-01-26T07:16:16.664Z,1.00
2023-01-26T07:18:43.840Z,1.00
2023-01-26T07:21:16.444Z,1.00
2023-01-26T07:23:48.553Z,1.00
2023-01-26T07:26:23.969Z,1.00
2023-01-26T07:28:51.020Z,1.00
2023-01-26T07:31:18.459Z,1.00
2023-01-26T07:33:45.736Z,1.00
2023-01-26T07:36:12.969Z,1.00
2023-01-26T07:38:40.033Z,1.00
2023-01-26T07:41:10.036Z,1.00
2023-01-26T07:43:38.148Z,1.10
2023-01-26T07:46:10.805Z,1.10
2023-01-26T07:48:38.716Z,1.10
2023-01-26T07:51:08.495Z,1.10
2023-01-26T07:53:39.470Z,1.10
2023-01-26T07:56:16.654Z,1.10
2023-01-26T07:58:43.690Z,1.10
2023-01-26T08:01:21.502Z,1.10
2023-01-26T08:03:52.078Z,1.10
2023-01-26T08:06:19.743Z,1.10
2023-01-26T08:08:51.116Z,1.10
2023-01-26T08:11:20.575Z,1.10
2023-01-26T08:13:47.747Z,1.10
2023-01-26T08:16:15.169Z,1.20
2023-01-26T08:18:44.764Z,1.20
2023-01-26T08:21:13.354Z,1.20
2023-01-26T08:23:40.702Z,1.20
2023-01-26T08:26:13.539Z,1.20
2023-01-26T08:28:41.378Z,1.20
2023-01-26T08:31:20.761Z,1.20
2023-01-26T08:33:53.378Z,1.30
2023-01-26T08:36:22.563Z,1.30
2023-01-26T08:38:53.951Z,1.30
2023-01-26T08:41:21.009Z,1.30
2023-01-26T08:43:48.602Z,1.40
2023-01-26T08:46:15.872Z,1.30
2023-01-26T08:48:43.159Z,1.40
2023-01-26T08:51:10.497Z,1.40
2023-01-26T08:53:38.179Z,1.40
2023-01-26T08:56:08.120Z,1.40
2023-01-26T08:58:35.718Z,1.40
2023-01-26T09:01:12.159Z,1.50
2023-01-26T09:03:39.746Z,1.60
2023-01-26T09:06:08.733Z,1.60
2023-01-26T09:08:36.700Z,1.60
2023-01-26T09:11:06.602Z,1.60
2023-01-26T09:13:34.540Z,1.70
2023-01-26T09:16:12.770Z,1.70
2023-01-26T09:18:42.669Z,1.70
2023-01-26T09:21:09.980Z,1.80
2023-01-26T09:23:37.628Z,1.90
2023-01-26T09:26:04.684Z,1.90
2023-01-26T09:28:31.724Z,1.90
2023-01-26T09:31:04.118Z,2.00
2023-01-26T09:33:34.056Z,2.10
2023-01-26T09:36:06.280Z,2.10
2023-01-26T09:38:33.767Z,2.10
2023-01-26T09:41:02.703Z,2.10
2023-01-26T09:43:43.650Z,2.30
2023-01-26T09:46:55.808Z,2.40
2023-01-26T09:49:46.921Z,2.60
2023-01-26T09:52:48.404Z,2.60
2023-01-26T09:55:19.555Z,2.70
2023-01-26T09:58:01.703Z,2.80
2023-01-26T10:00:36.632Z,2.90
2023-01-26T10:03:41.578Z,2.90
2023-01-26T10:06:28.527Z,3.00
2023-01-26T10:09:17.240Z,3.10
2023-01-26T10:11:49.434Z,3.30
2023-01-26T10:14:33.489Z,3.30
2023-01-26T10:17:03.911Z,3.40
2023-01-26T10:19:35.978Z,3.50
2023-01-26T10:22:11.680Z,3.60
2023-01-26T10:27:58.086Z,3.60
2023-01-26T10:30:25.798Z,3.70
2023-01-26T10:32:53.442Z,3.70
2023-01-26T10:35:25.819Z,3.70
2023-01-26T10:37:53.319Z,3.80
2023-01-26T10:40:21.280Z,4.00
2023-01-26T10:42:59.356Z,4.00
2023-01-26T10:45:32.149Z,4.10
2023-01-26T10:48:27.275Z,4.10
2023-01-26T10:50:54.401Z,4.20
2023-01-26T10:53:29.625Z,4.20
2023-01-26T10:56:13.533Z,4.30
2023-01-26T10:58:43.473Z,4.40
2023-01-26T11:01:12.515Z,4.40
2023-01-26T11:03:40.250Z,4.40
2023-01-26T11:06:11.689Z,4.50
2023-01-26T11:08:39.554Z,4.50
2023-01-26T11:11:22.045Z,4.60
2023-01-26T11:14:10.385Z,4.60
2023-01-26T11:16:37.815Z,4.80
2023-01-26T11:19:32.666Z,4.90
2023-01-26T11:22:37.549Z,4.90
2023-01-26T11:25:26.607Z,5.00
2023-01-26T11:28:25.478Z,5.20
2023-01-26T11:31:01.497Z,5.30
2023-01-26T11:33:46.693Z,5.40
2023-01-26T11:36:22.325Z,5.40
2023-01-26T11:39:17.945Z,5.50
2023-01-26T11:42:06.015Z,5.60
2023-01-26T11:44:47.978Z,5.60
2023-01-26T11:47:56.296Z,5.70
2023-01-26T11:50:33.204Z,5.80
2023-01-26T11:53:20.374Z,5.80
2023-01-26T11:56:17.136Z,5.90
2023-01-26T11:59:03.264Z,5.90
2023-01-26T12:01:43.561Z,5.90
2023-01-26T12:04:19.136Z,5.90
2023-01-26T12:06:53.665Z,6.00
2023-01-26T12:09:32.725Z,6.00
2023-01-26T12:12:37.388Z,6.10
2023-01-26T12:15:23.912Z,6.00
2023-01-26T12:18:00.353Z,6.00
2023-01-26T12:20:45.820Z,6.10
2023-01-26T12:23:38.497Z,6.20
2023-01-26T12:26:16.185Z,6.30
2023-01-26T12:28:51.807Z,6.40
2023-01-26T12:31:34.374Z,6.40
2023-01-26T12:34:01.647Z,6.50
2023-01-26T12:37:19.516Z,6.50
2023-01-26T12:40:01.617Z,6.60
2023-01-26T12:42:48.703Z,6.60
2023-01-26T12:45:20.758Z,6.60
2023-01-26T12:47:50.164Z,6.70
2023-01-26T12:50:26.358Z,6.70
2023-01-26T12:53:02.246Z,6.70
2023-01-26T12:55:36.147Z,6.70
2023-01-26T12:58:09.997Z,6.70
2023-01-26T13:00:38.952Z,6.80
2023-01-26T13:03:22.753Z,6.80
2023-01-26T13:05:58.721Z,6.70
2023-01-26T13:08:31.508Z,6.70
2023-01-26T13:11:00.852Z,6.70
2023-01-26T13:13:36.123Z,6.70
2023-01-26T13:16:15.576Z,6.70
2023-01-26T13:18:49.788Z,6.70
2023-01-26T13:21:38.512Z,6.70
2023-01-26T13:24:34.276Z,6.70
2023-01-26T13:27:01.393Z,6.70
2023-01-26T13:29:32.825Z,6.80
2023-01-26T13:32:19.765Z,6.80
2023-01-26T13:35:03.096Z,6.80
2023-01-26T13:37:42.969Z,6.90
2023-01-26T13:40:35.339Z,6.90
2023-01-26T13:43:25.686Z,7.00
2023-01-26T13:46:24.687Z,7.00
2023-01-26T13:48:56.167Z,7.00
2023-01-26T13:51:30.102Z,7.00
2023-01-26T13:54:14.371Z,7.00
2023-01-26T13:57:06.874Z,7.00
2023-01-26T13:59:34.276Z,6.90
2023-01-26T14:02:02.134Z,7.00
2023-01-26T14:04:31.451Z,7.00
2023-01-26T14:07:14.519Z,7.00
2023-01-26T14:09:50.769Z,7.00
2023-01-26T14:12:27.645Z,7.00
2023-01-26T14:15:00.328Z,7.00
2023-01-26T14:17:33.358Z,7.00
2023-01-26T14:20:03.688Z,7.10
2023-01-26T14:22:30.817Z,7.00
2023-01-26T14:24:57.959Z,7.00
2023-01-26T14:27:37.656Z,7.00
2023-01-26T14:30:26.891Z,7.00
2023-01-26T14:33:07.830Z,7.00
2023-01-26T14:35:38.155Z,7.00
2023-01-26T14:38:13.805Z,7.00
2023-01-26T14:40:45.731Z,7.10
2023-01-26T14:43:14.789Z,7.00
2023-01-26T14:45:49.359Z,7.00
2023-01-26T14:48:20.639Z,7.00
2023-01-26T14:50:48.739Z,7.00
2023-01-26T14:53:23.819Z,6.90
2023-01-26T14:55:52.116Z,6.90
2023-01-26T14:58:27.442Z,6.80
2023-01-26T15:00:58.257Z,6.80
2023-01-26T15:03:33.184Z,6.70
2023-01-26T15:06:06.070Z,6.70
2023-01-26T15:08:39.107Z,6.70
2023-01-26T15:11:28.078Z,6.70
2023-01-26T15:13:56.086Z,6.70
2023-01-26T15:16:25.249Z,6.70
2023-01-26T15:19:01.067Z,6.70
2023-01-26T15:21:43.748Z,6.70
2023-01-26T15:24:14.742Z,6.70
2023-01-26T15:26:44.541Z,6.70
2023-01-26T15:29:30.819Z,6.60
2023-01-26T15:31:58.883Z,6.60
2023-01-26T15:34:42.112Z,6.60
2023-01-26T15:37:29.232Z,6.60
2023-01-26T15:39:59.211Z,6.60
2023-01-26T15:42:30.182Z,6.60
2023-01-26T15:44:57.727Z,6.60
2023-01-26T15:47:25.148Z,6.60
2023-01-26T15:49:52.304Z,6.50
2023-01-26T15:52:30.497Z,6.50
2023-01-26T15:54:57.905Z,6.50
2023-01-26T15:57:24.863Z,6.50
2023-01-26T15:59:52.060Z,6.50
2023-01-26T16:02:20.891Z,6.50
2023-01-26T16:04:48.244Z,6.50
2023-01-26T16:07:17.982Z,6.40
2023-01-26T16:09:45.164Z,6.40
2023-01-26T16:12:36.236Z,6.40
2023-01-26T16:15:11.313Z,6.40
2023-01-26T16:17:38.547Z,6.40
2023-01-26T16:20:06.068Z,6.40
2023-01-26T16:22:51.469Z,6.30
2023-01-26T16:25:33.497Z,6.30
2023-01-26T16:28:00.522Z,6.30
2023-01-26T16:30:27.678Z,6.30
2023-01-26T16:32:55.072Z,6.30
2023-01-26T16:35:23.993Z,6.30
2023-01-26T16:37:51.295Z,6.30
2023-01-26T16:40:19.634Z,6.30
2023-01-26T16:43:08.123Z,6.30
2023-01-26T16:45:35.229Z,6.30
2023-01-26T16:48:02.237Z,6.30
2023-01-26T16:50:31.548Z,6.30
2023-01-26T16:56:20.305Z,6.30
2023-01-26T16:58:47.635Z,6.30
2023-01-26T17:01:20.661Z,6.30
2023-01-26T17:04:41.516Z,6.30
2023-01-26T17:07:08.625Z,6.30
2023-01-26T17:09:40.031Z,6.20
2023-01-26T17:12:07.700Z,6.10
2023-01-26T17:14:34.771Z,6.10
2023-01-26T17:17:01.924Z,6.20
2023-01-26T17:19:28.920Z,6.10
2023-01-26T17:21:55.957Z,6.10
2023-01-26T17:24:23.142Z,6.00
2023-01-26T17:26:50.240Z,6.00
2023-01-26T17:29:17.215Z,6.00
2023-01-26T17:31:44.419Z,6.00
2023-01-26T17:34:11.506Z,6.00
2023-01-26T17:36:38.956Z,5.90
2023-01-26T17:39:06.245Z,5.90
2023-01-26T17:41:33.230Z,5.90
2023-01-26T17:44:02.990Z,5.90
2023-01-26T17:46:30.014Z,5.90
2023-01-26T17:48:57.016Z,6.00
2023-01-26T17:51:24.199Z,6.00
2023-01-26T17:53:51.283Z,6.00
2023-01-26T17:56:20.898Z,6.00
2023-01-26T17:58:50.430Z,5.90
2023-01-26T18:01:18.460Z,5.90
2023-01-26T18:03:46.230Z,5.90
2023-01-26T18:06:13.478Z,5.80
2023-01-26T18:08:41.106Z,5.80
2023-01-26T18:11:10.860Z,5.80
2023-01-26T18:13:38.341Z,5.80
2023-01-26T18:16:07.051Z,5.80
2023-01-26T18:18:34.555Z,5.90
2023-01-26T18:21:13.507Z,5.80
2023-01-26T18:23:43.282Z,5.80
2023-01-26T18:26:10.446Z,5.70
2023-01-26T18:28:39.220Z,5.70
2023-01-26T18:31:14.719Z,5.80
2023-01-26T18:33:41.901Z,5.70
2023-01-26T18:36:11.983Z,5.80
2023-01-26T18:38:42.144Z,5.70
2023-01-26T18:41:14.442Z,5.70
2023-01-26T18:43:48.348Z,5.80
2023-01-26T18:46:15.595Z,5.70
2023-01-26T18:48:42.768Z,5.70
2023-01-26T18:51:10.228Z,5.70
2023-01-26T18:53:41.044Z,5.80
2023-01-26T18:56:11.571Z,5.80
2023-01-26T18:58:40.191Z,5.80
2023-01-26T19:01:10.616Z,5.80
2023-01-26T19:03:38.420Z,5.80
2023-01-26T19:06:06.238Z,5.80
2023-01-26T19:08:34.564Z,5.80
2023-01-26T19:11:07.034Z,5.80
2023-01-26T19:13:34.625Z,5.80
2023-01-26T19:16:01.724Z,5.80
2023-01-26T19:18:29.815Z,5.80
2023-01-26T19:21:02.907Z,5.80
2023-01-26T19:23:30.190Z,5.80
2023-01-26T19:25:57.464Z,5.80
2023-01-26T19:28:24.536Z,5.80
2023-01-26T19:30:51.683Z,5.70
2023-01-26T19:33:24.445Z,5.80
2023-01-26T19:35:52.594Z,5.80
2023-01-26T19:38:20.467Z,5.80
2023-01-26T19:40:49.599Z,5.80
2023-01-26T19:43:19.099Z,5.80
2023-01-26T19:45:50.741Z,5.80
2023-01-26T19:48:17.985Z,5.80
2023-01-26T19:50:45.043Z,5.80
2023-01-26T19:53:12.092Z,5.80
2023-01-26T19:55:39.268Z,5.80
2023-01-26T19:58:06.315Z,5.80
2023-01-26T20:00:33.254Z,5.80
2023-01-26T20:03:00.806Z,5.80
2023-01-26T20:05:27.895Z,5.80
2023-01-26T20:07:54.920Z,5.70
2023-01-26T20:10:22.023Z,5.70
2023-01-26T20:12:49.251Z,5.80
2023-01-26T20:15:16.243Z,5.80
2023-01-26T20:17:43.333Z,5.80
2023-01-26T20:20:12.489Z,5.70
2023-01-26T20:22:40.321Z,5.70
2023-01-26T20:25:11.612Z,5.70
2023-01-26T20:27:38.922Z,5.70
2023-01-26T20:30:06.769Z,5.70
2023-01-26T20:32:34.804Z,5.70
2023-01-26T20:35:02.477Z,5.70
2023-01-26T20:37:32.463Z,5.70
2023-01-26T20:39:59.887Z,5.70
2023-01-26T20:42:27.745Z,5.70
2023-01-26T20:44:55.631Z,5.70
2023-01-26T20:47:22.980Z,5.70
2023-01-26T20:49:50.872Z,5.70
2023-01-26T20:52:17.909Z,5.70
2023-01-26T20:54:45.227Z,5.70
2023-01-26T20:57:12.286Z,5.70
2023-01-26T20:59:40.241Z,5.60
2023-01-26T21:02:12.098Z,5.60
2023-01-26T21:04:40.320Z,5.70
2023-01-26T21:07:08.812Z,5.60
2023-01-26T21:09:36.087Z,5.70
2023-01-26T21:12:03.240Z,5.70
2023-01-26T21:14:30.243Z,5.60
2023-01-26T21:16:57.470Z,5.70
2023-01-26T21:19:24.534Z,5.60
2023-01-26T21:21:51.799Z,5.60
2023-01-26T21:24:19.022Z,5.60
2023-01-26T21:26:48.987Z,5.60
2023-01-26T21:29:17.145Z,5.60
2023-01-26T21:31:48.902Z,5.60
2023-01-26T21:34:15.890Z,5.60
2023-01-26T21:36:43.108Z,5.60
2023-01-26T21:39:14.975Z,5.60
2023-01-26T21:41:56.979Z,5.60
2023-01-26T21:44:27.968Z,5.60
2023-01-26T21:47:03.993Z,5.60
2023-01-26T21:49:31.165Z,5.50
2023-01-26T21:52:17.372Z,5.50
2023-01-26T21:54:44.502Z,5.50
2023-01-26T21:57:32.138Z,5.50
2023-01-26T21:59:59.597Z,5.50
2023-01-26T22:02:26.700Z,5.50
2023-01-26T22:04:53.867Z,5.50
2023-01-26T22:07:21.683Z,5.50
2023-01-26T22:09:48.971Z,5.40
2023-01-26T22:12:16.630Z,5.50
2023-01-26T22:14:43.752Z,5.50
2023-01-26T22:17:10.664Z,5.40
2023-01-26T22:19:37.792Z,5.40
2023-01-26T22:22:05.041Z,5.50
2023-01-26T22:24:32.142Z,5.40
2023-01-26T22:26:59.123Z,5.40
2023-01-26T22:29:26.185Z,5.40
2023-01-26T22:31:53.369Z,5.40
2023-01-26T22:34:20.421Z,5.30
2023-01-26T22:36:47.789Z,5.30
2023-01-26T22:39:14.682Z,5.30
2023-01-26T22:41:41.690Z,5.30
2023-01-26T22:44:08.886Z,5.30
2023-01-26T22:46:36.902Z,5.20
2023-01-26T22:49:04.997Z,5.30
2023-01-26T22:51:37.304Z,5.20
2023-01-26T22:54:05.310Z,5.20
2023-01-26T22:56:32.490Z,5.20
2023-01-26T22:59:00.865Z,5.20
2023-01-26T23:01:32.992Z,5.10
2023-01-26T23:04:00.782Z,5.10
2023-01-26T23:06:28.427Z,5.10
2023-01-26T23:08:55.724Z,5.10
2023-01-26T23:11:28.308Z,5.10
2023-01-26T23:13:56.662Z,5.00
2023-01-26T23:16:25.006Z,5.00
2023-01-26T23:18:53.977Z,5.00
2023-01-26T23:21:21.380Z,5.00
2023-01-26T23:23:48.631Z,4.90
2023-01-26T23:26:16.080Z,5.00
2023-01-26T23:28:44.579Z,4.90
2023-01-26T23:31:13.457Z,4.90
2023-01-26T23:33:41.024Z,4.90
2023-01-26T23:36:10.149Z,4.90
2023-01-26T23:38:37.576Z,4.90
2023-01-26T23:41:08.585Z,4.90
2023-01-26T23:43:35.866Z,4.90
2023-01-26T23:46:03.378Z,4.90
2023-01-26T23:48:30.771Z,5.00
2023-01-26T23:51:00.086Z,5.00
2023-01-26T23:53:28.299Z,5.00
2023-01-26T23:55:55.822Z,5.00
2023-01-26T23:58:22.842Z,5.00
